This is the latest recevied weather packets stored in our database for station/object ALANSN-2. If no packets are shown the sender has not sent any weather packets the latest 10 day(s).
| Time | Temp. | Humidity | Pressure | Rain* | Wind** | Luminosity | Snow |
|---|---|---|---|---|---|---|---|
| 1777700701 | -2.78° C | 98% | 1025.4 hPa | 0 mm | - | 0 W/m² | - |
| 1777700402 | -2.78° C | 98% | 1025.4 hPa | 0 mm | - | 0 W/m² | - |
| 1777699801 | -2.22° C | 98% | 1025.3 hPa | 0 mm | - | 0 W/m² | - |
| 1777699502 | -2.22° C | 98% | 1025.5 hPa | 0 mm | - | 0 W/m² | - |
| 1777699201 | -2.22° C | 98% | 1025.2 hPa | 0 mm | - | 0 W/m² | - |
| 1777698902 | -2.22° C | 98% | 1025.3 hPa | 0 mm | - | 0 W/m² | - |
| 1777698601 | -2.22° C | 98% | 1025.3 hPa | 0 mm | - | 0 W/m² | - |
| 1777698302 | -2.22° C | 98% | 1025.1 hPa | 0 mm | - | 0 W/m² | - |
| 1777698001 | -2.22° C | 98% | 1025.3 hPa | 0 mm | - | 0 W/m² | - |
| 1777697702 | -2.22° C | 98% | 1025.1 hPa | 0 mm | - | 0 W/m² | - |
| 1777697102 | -2.22° C | 98% | 1025.1 hPa | 0 mm | - | 0 W/m² | - |
| 1777695302 | -1.67° C | 97% | 1025 hPa | 0 mm | - | 0 W/m² | - |
| 1777694702 | -1.67° C | 97% | 1025 hPa | 0 mm | - | 0 W/m² | - |
| 1777694102 | -1.67° C | 96% | 1024.9 hPa | 0 mm | - | 0 W/m² | - |
| 1777693202 | -1.11° C | 95% | 1025 hPa | 0 mm | - | 0 W/m² | - |
| 1777692901 | -1.11° C | 95% | 1025 hPa | 0 mm | - | 0 W/m² | - |
| 1777692602 | -0.56° C | 95% | 1024.8 hPa | 0 mm | - | 0 W/m² | - |
| 1777691402 | 0° C | 94% | 1024.7 hPa | 0 mm | - | 0 W/m² | - |
| 1777690801 | 0.56° C | 93% | 1024.7 hPa | 0 mm | - | 0 W/m² | - |
| 1777690201 | 0° C | 94% | 1024.6 hPa | 0 mm | - | 0 W/m² | - |
| 1777689902 | 0.56° C | 93% | 1024.5 hPa | 0 mm | - | 0 W/m² | - |
| 1777689601 | 0.56° C | 92% | 1024.8 hPa | 0 mm | - | 0 W/m² | - |
| 1777689302 | 1.11° C | 91% | 1024.7 hPa | 0 mm | - | 0 W/m² | - |
| 1777688702 | 1.67° C | 89% | 1024.7 hPa | 0 mm | - | 0 W/m² | - |
| 1777673102 | 3.89° C | 77% | 1022.6 hPa | 0 mm | - | 80 W/m² | - |
* Rain latest hour (hover to see other rain measurements)
** Current wind speed in m/s (hover to see current wind gust speed)